createdAt,value
2018-06-29T04:31:02.942Z,1011.83
2018-06-29T04:32:02.833Z,1011.85
2018-06-29T04:33:02.831Z,1011.88
2018-06-29T04:34:02.809Z,1011.85
2018-06-29T04:35:02.799Z,1011.85
2018-06-29T04:36:02.782Z,1011.89
2018-06-29T04:37:02.768Z,1011.85
2018-06-29T04:38:02.758Z,1011.86
2018-06-29T04:39:02.750Z,1011.84
2018-06-29T04:40:02.731Z,1011.83
2018-06-29T04:41:02.717Z,1011.83
2018-06-29T04:42:02.724Z,1011.78
2018-06-29T04:43:02.693Z,1011.8
2018-06-29T04:44:02.681Z,1011.79
2018-06-29T04:45:02.673Z,1011.76
2018-06-29T04:46:02.655Z,1011.77
2018-06-29T04:47:02.649Z,1011.76
2018-06-29T04:48:02.630Z,1011.76
2018-06-29T04:49:02.635Z,1011.77
2018-06-29T04:50:02.607Z,1011.76
2018-06-29T04:51:02.595Z,1011.75
2018-06-29T04:52:02.582Z,1011.7
2018-06-29T04:53:02.576Z,1011.74
2018-06-29T04:54:02.557Z,1011.73
2018-06-29T04:55:02.544Z,1011.74
2018-06-29T04:56:02.532Z,1011.71
2018-06-29T04:57:02.524Z,1011.72
2018-06-29T04:58:02.513Z,1011.76
2018-06-29T04:59:02.495Z,1011.72
2018-06-29T05:00:02.482Z,1011.74
2018-06-29T05:01:02.533Z,1011.75
2018-06-29T05:02:02.463Z,1011.76
2018-06-29T05:03:02.445Z,1011.77
2018-06-29T05:04:02.436Z,1011.75
2018-06-29T05:05:02.436Z,1011.76
2018-06-29T05:06:02.408Z,1011.76
2018-06-29T05:07:02.398Z,1011.78
2018-06-29T05:08:02.384Z,1011.76
2018-06-29T05:09:02.372Z,1011.74
2018-06-29T05:10:02.365Z,1011.73
2018-06-29T05:11:02.349Z,1011.75
2018-06-29T05:12:02.339Z,1011.81
2018-06-29T05:13:02.322Z,1011.73
2018-06-29T05:14:02.312Z,1011.77
2018-06-29T05:15:02.301Z,1011.78
2018-06-29T05:16:02.286Z,1011.79
2018-06-29T05:17:02.273Z,1011.79
2018-06-29T05:18:02.263Z,1011.76
2018-06-29T05:19:02.250Z,1011.76
2018-06-29T05:20:02.247Z,1011.8
2018-06-29T05:21:02.230Z,1011.79
2018-06-29T05:22:02.213Z,1011.79
2018-06-29T05:23:02.202Z,1011.76
2018-06-29T05:24:02.191Z,1011.81
2018-06-29T05:25:02.182Z,1011.83
2018-06-29T05:26:02.170Z,1011.81
2018-06-29T05:27:02.155Z,1011.8
2018-06-29T05:28:02.142Z,1011.81
2018-06-29T05:29:02.132Z,1011.77
2018-06-29T05:30:02.121Z,1011.77
2018-06-29T05:31:02.109Z,1011.8
2018-06-29T05:32:02.094Z,1011.76
2018-06-29T05:33:02.283Z,1011.77
2018-06-29T05:34:02.070Z,1011.77
2018-06-29T05:35:02.057Z,1011.78
2018-06-29T05:36:02.053Z,1011.75
2018-06-29T05:37:02.049Z,1011.79
2018-06-29T05:38:02.025Z,1011.8
2018-06-29T05:39:02.010Z,1011.81
2018-06-29T05:40:02.012Z,1011.81
2018-06-29T05:41:01.992Z,1011.83
2018-06-29T05:42:01.976Z,1011.88
2018-06-29T05:43:01.965Z,1011.95
2018-06-29T05:44:01.953Z,1011.94
2018-06-29T05:45:01.940Z,1011.97
2018-06-29T05:46:01.929Z,1011.92
2018-06-29T05:47:01.945Z,1011.93
2018-06-29T05:48:01.908Z,1011.91
2018-06-29T05:49:01.893Z,1011.92
2018-06-29T05:50:01.883Z,1011.89
2018-06-29T05:51:01.872Z,1011.87
2018-06-29T05:52:01.860Z,1011.86
2018-06-29T05:53:01.868Z,1011.85
2018-06-29T05:54:01.838Z,1011.81
2018-06-29T05:55:01.830Z,1011.81
2018-06-29T05:56:01.813Z,1011.8
2018-06-29T05:57:01.802Z,1011.78
2018-06-29T05:58:01.791Z,1011.84
2018-06-29T05:59:01.781Z,1011.85
2018-06-29T06:00:01.767Z,1011.88
2018-06-29T06:01:01.756Z,1011.92
2018-06-29T06:02:01.803Z,1011.96
2018-06-29T06:03:01.735Z,1011.94
2018-06-29T06:04:01.754Z,1011.97
2018-06-29T06:05:01.712Z,1011.92
2018-06-29T06:06:01.703Z,1011.95
2018-06-29T06:07:01.691Z,1011.92
2018-06-29T06:08:01.676Z,1011.91
2018-06-29T06:09:01.668Z,1011.91
2018-06-29T06:10:01.658Z,1011.92
2018-06-29T06:11:01.644Z,1011.89
2018-06-29T06:12:01.630Z,1011.87
2018-06-29T06:13:01.619Z,1011.89
2018-06-29T06:14:01.609Z,1011.87
2018-06-29T06:15:01.602Z,1011.84
2018-06-29T06:16:01.656Z,1011.84
2018-06-29T06:17:01.604Z,1011.84
2018-06-29T06:18:01.586Z,1011.89
2018-06-29T06:19:01.554Z,1011.86
2018-06-29T06:20:01.541Z,1011.88
2018-06-29T06:21:01.530Z,1011.91
2018-06-29T06:22:01.574Z,1011.99
2018-06-29T06:23:01.516Z,1012
2018-06-29T06:24:01.503Z,1011.98
2018-06-29T06:25:01.488Z,1011.92
2018-06-29T06:26:01.482Z,1011.75
2018-06-29T06:27:01.470Z,1011.72
2018-06-29T06:28:01.459Z,1011.69
2018-06-29T06:29:01.451Z,1011.67
2018-06-29T06:30:01.647Z,1011.67
2018-06-29T06:31:01.431Z,1011.71
2018-06-29T06:32:01.422Z,1011.71
2018-06-29T06:33:01.421Z,1011.74
2018-06-29T06:34:01.421Z,1011.75
2018-06-29T06:35:01.391Z,1011.76
2018-06-29T06:36:01.383Z,1011.73
2018-06-29T06:37:01.373Z,1011.74
2018-06-29T06:38:01.362Z,1011.84
2018-06-29T06:39:01.357Z,1011.79
2018-06-29T06:40:01.347Z,1011.77
2018-06-29T06:41:01.339Z,1011.8
2018-06-29T06:42:01.325Z,1011.8
2018-06-29T06:43:01.316Z,1011.81
2018-06-29T06:44:01.305Z,1011.81
2018-06-29T06:45:01.297Z,1011.85
2018-06-29T06:46:01.287Z,1011.89
2018-06-29T06:47:01.338Z,1011.87
2018-06-29T06:48:01.269Z,1011.97
2018-06-29T06:49:01.256Z,1012.09
2018-06-29T06:50:01.251Z,1012.12
2018-06-29T06:51:01.236Z,1012.13
2018-06-29T06:52:01.231Z,1012.05
2018-06-29T06:53:01.219Z,1011.92
2018-06-29T06:54:01.210Z,1011.88
2018-06-29T06:55:01.199Z,1011.86
2018-06-29T06:56:01.201Z,1011.84
2018-06-29T06:57:01.184Z,1011.86
2018-06-29T06:58:01.180Z,1011.82
2018-06-29T06:59:01.167Z,1011.85
2018-06-29T07:00:01.167Z,1011.85
2018-06-29T07:01:01.152Z,1011.86
2018-06-29T07:02:01.143Z,1011.85
2018-06-29T07:03:01.134Z,1011.87
2018-06-29T07:04:01.126Z,1011.92
2018-06-29T07:05:01.120Z,1011.89
2018-06-29T07:06:01.112Z,1011.89
2018-06-29T07:07:01.104Z,1011.87
2018-06-29T07:08:01.094Z,1011.86
2018-06-29T07:09:01.085Z,1011.84
2018-06-29T07:10:01.077Z,1011.8
2018-06-29T07:11:01.070Z,1011.75
2018-06-29T07:12:01.063Z,1011.8
2018-06-29T07:13:01.058Z,1011.8
2018-06-29T07:14:01.048Z,1011.82
2018-06-29T07:15:01.037Z,1011.91
2018-06-29T07:16:01.028Z,1011.96
2018-06-29T07:17:01.020Z,1012.04
2018-06-29T07:18:01.013Z,1012.02
2018-06-29T07:19:01.016Z,1012.02
2018-06-29T07:20:01.002Z,1012.03
2018-06-29T07:21:00.992Z,1012.05
2018-06-29T07:22:00.985Z,1012.08
2018-06-29T07:23:00.979Z,1012.12
2018-06-29T07:24:00.973Z,1012.1
2018-06-29T07:25:00.967Z,1012.13
2018-06-29T07:26:00.962Z,1012.18
2018-06-29T07:27:00.957Z,1012.17
2018-06-29T07:28:00.952Z,1012.21
2018-06-29T07:29:00.964Z,1012.18
2018-06-29T07:30:00.985Z,1012.2
2018-06-29T07:31:00.941Z,1012.24
2018-06-29T07:32:00.941Z,1012.18
2018-06-29T07:33:00.938Z,1012.2
2018-06-29T07:34:00.928Z,1012.2
2018-06-29T07:35:00.927Z,1012.21
2018-06-29T07:36:00.925Z,1012.18
2018-06-29T07:37:00.922Z,1012.19
2018-06-29T07:38:00.919Z,1012.2
2018-06-29T07:39:00.918Z,1012.17
2018-06-29T07:40:00.914Z,1012.15
2018-06-29T07:41:00.914Z,1012.09
2018-06-29T07:42:00.912Z,1012.05
2018-06-29T07:43:00.911Z,1012.06
2018-06-29T07:44:00.911Z,1012.02
2018-06-29T07:45:00.909Z,1011.95
2018-06-29T07:46:00.909Z,1011.99
2018-06-29T07:47:00.925Z,1012.01
2018-06-29T07:48:00.908Z,1011.96
2018-06-29T07:49:00.908Z,1011.98
2018-06-29T07:50:00.911Z,1011.97
2018-06-29T07:51:00.909Z,1011.97
2018-06-29T07:52:00.911Z,1012
2018-06-29T07:53:00.911Z,1012.02
2018-06-29T07:54:00.916Z,1011.99
2018-06-29T07:55:00.915Z,1012
2018-06-29T07:56:00.914Z,1011.98
2018-06-29T07:57:00.917Z,1012
2018-06-29T07:58:00.948Z,1011.99
2018-06-29T07:59:00.922Z,1012.05
2018-06-29T08:00:00.921Z,1011.99
2018-06-29T08:01:00.924Z,1011.99
2018-06-29T08:02:00.925Z,1011.96
2018-06-29T08:03:00.929Z,1011.97
2018-06-29T08:04:01.024Z,1011.96
2018-06-29T08:05:00.929Z,1011.93
2018-06-29T08:06:00.932Z,1011.93
2018-06-29T08:07:00.935Z,1011.88
2018-06-29T08:08:00.936Z,1011.85
2018-06-29T08:09:00.938Z,1011.87
2018-06-29T08:10:00.947Z,1011.83
2018-06-29T08:11:00.944Z,1011.84
2018-06-29T08:12:00.949Z,1011.79
2018-06-29T08:13:00.952Z,1011.85
2018-06-29T08:14:00.952Z,1011.81
2018-06-29T08:15:00.960Z,1011.89
2018-06-29T08:16:00.958Z,1011.85
2018-06-29T08:17:00.966Z,1011.88
2018-06-29T08:18:00.966Z,1011.85
2018-06-29T08:19:00.968Z,1011.86
2018-06-29T08:20:00.974Z,1011.93
2018-06-29T08:21:00.976Z,1011.9
2018-06-29T08:22:00.979Z,1011.87
2018-06-29T08:23:00.984Z,1011.92
2018-06-29T08:24:00.985Z,1011.92
2018-06-29T08:25:00.991Z,1011.93
2018-06-29T08:26:00.994Z,1011.92
2018-06-29T08:27:01.002Z,1011.86
2018-06-29T08:28:01.003Z,1011.91
2018-06-29T08:29:01.011Z,1011.87
2018-06-29T08:30:01.011Z,1011.79
2018-06-29T08:31:01.017Z,1011.64
2018-06-29T08:32:01.021Z,1011.62
2018-06-29T08:33:01.023Z,1011.62
2018-06-29T08:34:01.026Z,1011.54
2018-06-29T08:35:01.032Z,1011.61
2018-06-29T08:36:01.031Z,1011.57
2018-06-29T08:37:01.035Z,1011.45
2018-06-29T08:38:01.037Z,1011.49
2018-06-29T08:39:01.042Z,1011.44
2018-06-29T08:40:01.044Z,1011.46
2018-06-29T08:41:01.046Z,1011.43
2018-06-29T08:42:01.050Z,1011.42
2018-06-29T08:43:01.052Z,1011.44
2018-06-29T08:44:01.048Z,1011.39
2018-06-29T08:45:01.051Z,1011.43
2018-06-29T08:46:01.054Z,1011.39
2018-06-29T08:47:01.134Z,1011.37
2018-06-29T08:48:01.052Z,1011.37
2018-06-29T08:49:01.053Z,1011.33
2018-06-29T08:50:01.065Z,1011.38
2018-06-29T08:51:01.055Z,1011.53
2018-06-29T08:52:01.052Z,1011.61
2018-06-29T08:53:01.051Z,1011.72
2018-06-29T08:54:01.052Z,1011.75
2018-06-29T08:55:01.062Z,1011.87
2018-06-29T08:56:01.050Z,1011.82
2018-06-29T08:57:01.052Z,1011.89
2018-06-29T08:58:01.049Z,1011.98
2018-06-29T08:59:01.050Z,1011.85
2018-06-29T09:00:01.048Z,1011.94
2018-06-29T09:01:01.052Z,1011.97
2018-06-29T09:02:01.052Z,1011.9
2018-06-29T09:03:01.052Z,1011.92
2018-06-29T09:04:01.049Z,1011.93
2018-06-29T09:05:01.149Z,1011.93
2018-06-29T09:06:01.051Z,1011.96
2018-06-29T09:07:01.062Z,1011.99
2018-06-29T09:08:01.061Z,1011.96
2018-06-29T09:09:01.058Z,1012.03
2018-06-29T09:10:01.063Z,1012.01
2018-06-29T09:11:01.114Z,1012.02
2018-06-29T09:12:01.068Z,1012.04
2018-06-29T09:13:01.070Z,1011.98
2018-06-29T09:14:01.075Z,1011.96
2018-06-29T09:15:01.084Z,1012.04
2018-06-29T09:16:01.081Z,1011.7
2018-06-29T09:17:01.081Z,1011.66
2018-06-29T09:18:01.090Z,1011.61
2018-06-29T09:19:01.139Z,1011.58
2018-06-29T09:20:01.098Z,1011.61
2018-06-29T09:21:01.096Z,1012.11
2018-06-29T09:22:01.103Z,1011.84
2018-06-29T09:23:01.103Z,1011.83
2018-06-29T09:24:01.107Z,1011.62
2018-06-29T09:25:01.107Z,1011.54
2018-06-29T09:26:01.114Z,1011.51
2018-06-29T09:27:01.113Z,1011.44
2018-06-29T09:28:01.118Z,1011.45
2018-06-29T09:29:01.120Z,1011.73
2018-06-29T09:30:01.264Z,1011.94
2018-06-29T09:31:01.124Z,1011.89
2018-06-29T09:32:01.127Z,1011.77
2018-06-29T09:33:01.348Z,1011.67
2018-06-29T09:34:01.136Z,1011.64
2018-06-29T09:35:01.136Z,1011.57
2018-06-29T09:36:01.141Z,1011.96
2018-06-29T09:37:01.142Z,1011.93
2018-06-29T09:38:01.146Z,1011.94
2018-06-29T09:39:01.145Z,1011.93
2018-06-29T09:40:01.150Z,1011.85
2018-06-29T09:41:01.153Z,1011.79
2018-06-29T09:42:01.157Z,1011.82
2018-06-29T09:43:01.161Z,1011.69
2018-06-29T09:44:01.176Z,1011.21
2018-06-29T09:45:01.169Z,1011.23
2018-06-29T09:46:01.176Z,1011.39
2018-06-29T09:47:01.178Z,1011.37
2018-06-29T09:48:01.338Z,1011.1
2018-06-29T09:49:01.186Z,1011.12
2018-06-29T09:50:01.189Z,1011.27
2018-06-29T09:51:01.192Z,1011.19
2018-06-29T09:52:01.198Z,1011.05
2018-06-29T09:53:01.202Z,1011.12
2018-06-29T09:54:01.227Z,1011.06
2018-06-29T09:55:01.209Z,1011.06
2018-06-29T09:56:01.206Z,1011.05
2018-06-29T09:57:01.208Z,1011.06
2018-06-29T09:58:01.211Z,1011.02
2018-06-29T09:59:01.212Z,1011.01
2018-06-29T10:00:01.215Z,1011.06
2018-06-29T10:01:01.218Z,1011
2018-06-29T10:02:01.213Z,1010.96
2018-06-29T10:03:01.214Z,1011.16
2018-06-29T10:04:01.214Z,1011.26
2018-06-29T10:05:01.215Z,1011.2
2018-06-29T10:06:01.221Z,1011.23
2018-06-29T10:07:01.214Z,1011
2018-06-29T10:08:01.214Z,1011.09
2018-06-29T10:09:01.214Z,1011.03
2018-06-29T10:10:01.214Z,1011
2018-06-29T10:11:01.219Z,1010.96
2018-06-29T10:12:01.215Z,1010.92
2018-06-29T10:13:01.212Z,1010.97
2018-06-29T10:14:01.224Z,1011.5
2018-06-29T10:15:01.222Z,1011.01
2018-06-29T10:16:01.213Z,1011.19
2018-06-29T10:17:01.215Z,1010.94
2018-06-29T10:18:01.213Z,1010.86
2018-06-29T10:19:01.209Z,1010.95
2018-06-29T10:20:01.324Z,1011.01
2018-06-29T10:21:01.208Z,1010.94
2018-06-29T10:22:01.226Z,1011.05
2018-06-29T10:23:01.211Z,1011.14
2018-06-29T10:24:01.208Z,1011.31
2018-06-29T10:25:01.207Z,1011.29
2018-06-29T10:26:01.210Z,1011.32
2018-06-29T10:27:01.209Z,1011.3
2018-06-29T10:28:01.244Z,1011.31
2018-06-29T10:29:01.211Z,1011.29
2018-06-29T10:30:01.213Z,1011.33
2018-06-29T10:31:01.216Z,1011.29
2018-06-29T10:32:01.224Z,1011.26
2018-06-29T10:33:01.225Z,1011.28
2018-06-29T10:34:01.429Z,1011.27
2018-06-29T10:35:01.231Z,1011.29
2018-06-29T10:36:01.290Z,1011.24
2018-06-29T10:37:01.238Z,1011.21
2018-06-29T10:38:01.240Z,1011.14
2018-06-29T10:39:01.247Z,1011.19
2018-06-29T10:40:01.251Z,1011.18
2018-06-29T10:41:01.262Z,1011.15
2018-06-29T10:42:01.265Z,1011.16
2018-06-29T10:43:01.267Z,1011.14
2018-06-29T10:44:01.275Z,1011.13
2018-06-29T10:45:01.325Z,1011.06
2018-06-29T10:46:01.286Z,1010.94
2018-06-29T10:47:01.292Z,1010.91
2018-06-29T10:48:01.298Z,1010.81
2018-06-29T10:49:01.303Z,1010.75
2018-06-29T10:50:01.314Z,1010.75
2018-06-29T10:51:01.318Z,1010.72
2018-06-29T10:52:01.327Z,1010.76
2018-06-29T10:53:01.333Z,1010.7
2018-06-29T10:54:01.354Z,1010.69
2018-06-29T10:55:01.351Z,1010.65
2018-06-29T10:56:01.357Z,1010.65
2018-06-29T10:57:01.362Z,1010.64
2018-06-29T10:58:01.370Z,1010.63
2018-06-29T10:59:01.382Z,1010.62
2018-06-29T11:00:01.387Z,1010.63
2018-06-29T11:01:01.392Z,1010.65
2018-06-29T11:02:01.401Z,1010.6
2018-06-29T11:03:01.408Z,1010.59
2018-06-29T11:04:01.413Z,1010.59
2018-06-29T11:05:01.425Z,1010.59
2018-06-29T11:06:01.433Z,1010.62
2018-06-29T11:07:01.440Z,1010.56
2018-06-29T11:08:01.448Z,1010.53
2018-06-29T11:09:01.456Z,1010.51
2018-06-29T11:10:01.466Z,1010.47
2018-06-29T11:11:01.514Z,1010.41
2018-06-29T11:12:01.481Z,1010.46
2018-06-29T11:13:01.490Z,1010.42
2018-06-29T11:14:01.497Z,1010.43
2018-06-29T11:15:01.505Z,1010.44
2018-06-29T11:16:01.517Z,1010.35
2018-06-29T11:17:01.528Z,1010.44
2018-06-29T11:18:01.554Z,1010.42
2018-06-29T11:19:01.545Z,1010.41
2018-06-29T11:20:01.551Z,1010.41
2018-06-29T11:21:01.561Z,1010.43
2018-06-29T11:22:01.567Z,1010.45
2018-06-29T11:23:01.576Z,1010.4
2018-06-29T11:24:01.585Z,1010.35
2018-06-29T11:25:01.593Z,1010.34
2018-06-29T11:26:01.602Z,1010.39
2018-06-29T11:27:01.611Z,1010.41
2018-06-29T11:28:01.620Z,1010.41
2018-06-29T11:29:01.631Z,1010.42
2018-06-29T11:30:01.641Z,1010.38
2018-06-29T11:31:01.647Z,1010.37
2018-06-29T11:32:01.656Z,1010.37
2018-06-29T11:33:01.668Z,1010.36
2018-06-29T11:34:01.908Z,1010.33
2018-06-29T11:35:01.688Z,1010.3
2018-06-29T11:36:01.692Z,1010.26
2018-06-29T11:37:01.703Z,1010.26
2018-06-29T11:38:01.711Z,1010.25
2018-06-29T11:39:01.719Z,1010.19
2018-06-29T11:40:01.735Z,1010.21
2018-06-29T11:41:01.738Z,1010.22
2018-06-29T11:42:01.747Z,1010.23
2018-06-29T11:43:01.755Z,1010.21
2018-06-29T11:44:01.811Z,1010.19
2018-06-29T11:45:01.774Z,1010.16
2018-06-29T11:46:01.783Z,1010.17
2018-06-29T11:47:01.794Z,1010.15
2018-06-29T11:48:01.803Z,1010.15
2018-06-29T11:49:01.814Z,1010.14
2018-06-29T11:50:01.823Z,1010.14
2018-06-29T11:51:01.829Z,1010.16
2018-06-29T11:52:01.846Z,1010.12
2018-06-29T11:53:01.849Z,1010.17
2018-06-29T11:54:01.858Z,1010.16
2018-06-29T11:55:01.876Z,1010.15
2018-06-29T11:56:01.881Z,1010.13
2018-06-29T11:57:01.890Z,1010.12
2018-06-29T11:58:01.903Z,1010.16
2018-06-29T11:59:01.909Z,1010.15
2018-06-29T12:00:01.920Z,1010.12
2018-06-29T12:01:01.930Z,1010.13
2018-06-29T12:02:01.940Z,1010.03
2018-06-29T12:03:01.953Z,1010.08
2018-06-29T12:04:01.960Z,1010
2018-06-29T12:05:01.968Z,1010.03
2018-06-29T12:06:01.978Z,1010
2018-06-29T12:07:01.988Z,1010.07
2018-06-29T12:08:02.000Z,1010.07
2018-06-29T12:09:02.025Z,1010.01
2018-06-29T12:10:02.021Z,1010.01
2018-06-29T12:11:02.029Z,1010.04
2018-06-29T12:12:02.038Z,1010
2018-06-29T12:13:02.046Z,1009.96
2018-06-29T12:14:02.055Z,1009.98
2018-06-29T12:15:02.067Z,1009.94
2018-06-29T12:16:02.076Z,1010.01
2018-06-29T12:17:02.084Z,1009.99
2018-06-29T12:18:02.097Z,1009.99
2018-06-29T12:19:02.105Z,1009.95
2018-06-29T12:20:02.117Z,1009.96
2018-06-29T12:21:02.124Z,1009.99
2018-06-29T12:22:02.134Z,1010.03
2018-06-29T12:23:02.146Z,1010.03
2018-06-29T12:24:02.156Z,1009.94
2018-06-29T12:25:02.165Z,1009.97
2018-06-29T12:26:02.176Z,1009.94
2018-06-29T12:27:02.193Z,1009.89
2018-06-29T12:28:02.288Z,1009.88
2018-06-29T12:29:02.206Z,1009.84
2018-06-29T12:30:02.215Z,1009.85
2018-06-29T12:31:02.228Z,1009.86
2018-06-29T12:32:02.241Z,1009.83
2018-06-29T12:33:02.247Z,1009.84
2018-06-29T12:34:02.253Z,1009.84
2018-06-29T12:35:02.268Z,1009.84
2018-06-29T12:36:02.291Z,1009.85
2018-06-29T12:37:02.282Z,1009.83
2018-06-29T12:38:02.311Z,1009.79
2018-06-29T12:39:02.308Z,1009.8
2018-06-29T12:40:02.315Z,1009.79
2018-06-29T12:41:02.321Z,1009.77
2018-06-29T12:42:02.332Z,1009.78
2018-06-29T12:43:02.343Z,1009.82
2018-06-29T12:44:02.352Z,1009.78
2018-06-29T12:45:02.368Z,1009.74
2018-06-29T12:46:02.445Z,1009.76
2018-06-29T12:47:02.379Z,1009.72
2018-06-29T12:48:02.391Z,1009.79
2018-06-29T12:49:02.405Z,1009.77
2018-06-29T12:50:02.409Z,1009.73
2018-06-29T12:51:02.421Z,1009.71
2018-06-29T12:52:02.428Z,1009.69
2018-06-29T12:53:02.439Z,1009.7
2018-06-29T12:54:02.449Z,1009.68
2018-06-29T12:55:02.458Z,1009.63
2018-06-29T12:56:02.467Z,1009.63
2018-06-29T12:57:02.638Z,1009.58
2018-06-29T12:58:02.487Z,1009.6
2018-06-29T12:59:02.500Z,1009.61
2018-06-29T13:00:02.507Z,1009.58
2018-06-29T13:01:02.522Z,1009.59
2018-06-29T13:02:02.537Z,1009.54
2018-06-29T13:03:02.543Z,1009.56
2018-06-29T13:04:02.549Z,1009.54
2018-06-29T13:05:02.560Z,1009.52
2018-06-29T13:06:02.575Z,1009.47
2018-06-29T13:07:02.584Z,1009.44
2018-06-29T13:08:02.590Z,1009.43
2018-06-29T13:09:02.598Z,1009.42
2018-06-29T13:10:02.612Z,1009.42
2018-06-29T13:11:02.614Z,1009.41
2018-06-29T13:12:02.631Z,1009.39
2018-06-29T13:13:02.635Z,1009.41
2018-06-29T13:14:02.644Z,1009.4
2018-06-29T13:15:02.653Z,1009.35
2018-06-29T13:16:02.678Z,1009.32
2018-06-29T13:17:02.672Z,1009.35
2018-06-29T13:18:02.681Z,1009.29
2018-06-29T13:19:02.694Z,1009.3
2018-06-29T13:20:02.704Z,1009.29
2018-06-29T13:21:02.710Z,1009.34
2018-06-29T13:22:02.719Z,1009.35
2018-06-29T13:23:02.729Z,1009.36
2018-06-29T13:24:02.744Z,1009.37
2018-06-29T13:25:02.801Z,1009.38
2018-06-29T13:26:02.758Z,1009.33
2018-06-29T13:27:02.767Z,1009.33
2018-06-29T13:28:02.777Z,1009.31
2018-06-29T13:29:02.790Z,1009.28
2018-06-29T13:30:02.795Z,1009.26
2018-06-29T13:31:02.805Z,1009.26
2018-06-29T13:32:02.814Z,1009.25
2018-06-29T13:33:02.826Z,1009.22
2018-06-29T13:34:03.035Z,1009.26
2018-06-29T13:35:02.842Z,1009.25
2018-06-29T13:36:02.898Z,1009.25
2018-06-29T13:37:02.858Z,1009.27
2018-06-29T13:38:02.869Z,1009.23
2018-06-29T13:39:02.879Z,1009.22
2018-06-29T13:40:02.887Z,1009.22
2018-06-29T13:41:02.910Z,1009.18
2018-06-29T13:42:02.910Z,1009.23
2018-06-29T13:43:02.915Z,1009.22
2018-06-29T13:44:02.939Z,1009.22
2018-06-29T13:45:02.934Z,1009.21
2018-06-29T13:46:02.943Z,1009.19
2018-06-29T13:47:02.951Z,1009.15
2018-06-29T13:48:02.962Z,1009.13
2018-06-29T13:49:02.974Z,1009.17
2018-06-29T13:50:02.980Z,1009.15
2018-06-29T13:51:02.987Z,1009.16
2018-06-29T13:52:03.006Z,1009.13
2018-06-29T13:53:03.007Z,1009.11
2018-06-29T13:54:03.016Z,1009.13
2018-06-29T13:55:03.027Z,1009.09
2018-06-29T13:56:03.036Z,1009.1
2018-06-29T13:57:03.043Z,1009.1
2018-06-29T13:58:03.053Z,1009.15
2018-06-29T13:59:03.061Z,1009.11
2018-06-29T14:00:03.071Z,1009.11
2018-06-29T14:01:03.078Z,1009.05
2018-06-29T14:02:03.084Z,1009.07
2018-06-29T14:03:03.094Z,1009.07
2018-06-29T14:04:03.112Z,1009.06
2018-06-29T14:05:03.111Z,1009.03
2018-06-29T14:06:03.126Z,1009.01
2018-06-29T14:07:03.129Z,1009.03
2018-06-29T14:08:03.145Z,1009.02
2018-06-29T14:09:03.148Z,1008.98
2018-06-29T14:10:03.155Z,1008.99
2018-06-29T14:11:03.164Z,1008.96
2018-06-29T14:12:03.173Z,1008.97
2018-06-29T14:13:03.180Z,1008.94
2018-06-29T14:14:03.193Z,1008.89
2018-06-29T14:15:03.198Z,1008.88
2018-06-29T14:16:03.206Z,1008.9
2018-06-29T14:17:03.214Z,1008.91
2018-06-29T14:18:03.281Z,1008.85
2018-06-29T14:19:03.230Z,1008.85
2018-06-29T14:20:03.240Z,1008.86
2018-06-29T14:21:03.249Z,1008.84
2018-06-29T14:22:03.255Z,1008.78
2018-06-29T14:23:03.269Z,1008.76
2018-06-29T14:24:03.274Z,1008.78
2018-06-29T14:25:03.278Z,1008.86
2018-06-29T14:26:03.287Z,1008.8
2018-06-29T14:27:03.295Z,1008.81
2018-06-29T14:28:03.302Z,1008.82
2018-06-29T14:29:03.405Z,1008.77
2018-06-29T14:30:03.317Z,1008.78
2018-06-29T14:31:03.331Z,1008.76
2018-06-29T14:32:03.333Z,1008.75
2018-06-29T14:33:03.342Z,1008.76
2018-06-29T14:34:03.352Z,1008.79
2018-06-29T14:35:03.357Z,1008.75
2018-06-29T14:36:03.370Z,1008.77
2018-06-29T14:37:03.375Z,1008.74
2018-06-29T14:38:03.388Z,1008.76
2018-06-29T14:39:03.387Z,1008.76
2018-06-29T14:40:03.396Z,1008.76
2018-06-29T14:41:03.421Z,1008.8
2018-06-29T14:42:03.410Z,1008.76
2018-06-29T14:43:03.417Z,1008.73
2018-06-29T14:44:03.428Z,1008.73
2018-06-29T14:45:03.439Z,1008.68
2018-06-29T14:46:03.444Z,1008.68
2018-06-29T14:47:03.448Z,1008.71
2018-06-29T14:48:03.455Z,1008.65
2018-06-29T14:49:03.463Z,1008.66
2018-06-29T14:50:03.469Z,1008.65
2018-06-29T14:51:03.476Z,1008.63
2018-06-29T14:52:03.483Z,1008.69
2018-06-29T14:53:03.491Z,1008.68
2018-06-29T14:54:03.499Z,1008.64
2018-06-29T14:55:03.508Z,1008.65
2018-06-29T14:56:03.513Z,1008.63
2018-06-29T14:57:03.520Z,1008.66
2018-06-29T14:58:03.526Z,1008.65
2018-06-29T14:59:03.536Z,1008.6
2018-06-29T15:00:03.579Z,1008.61
2018-06-29T15:01:03.549Z,1008.57
2018-06-29T15:02:03.554Z,1008.55
2018-06-29T15:03:03.567Z,1008.47
2018-06-29T15:04:03.567Z,1008.48
2018-06-29T15:05:03.575Z,1008.46
2018-06-29T15:06:03.585Z,1008.49
2018-06-29T15:07:03.590Z,1008.45
2018-06-29T15:08:03.594Z,1008.42
2018-06-29T15:09:03.610Z,1008.43
2018-06-29T15:10:03.610Z,1008.45
2018-06-29T15:11:03.616Z,1008.42
2018-06-29T15:12:03.623Z,1008.4
2018-06-29T15:13:03.629Z,1008.45
2018-06-29T15:14:03.635Z,1008.39
2018-06-29T15:15:03.640Z,1008.4
2018-06-29T15:16:03.647Z,1008.24
2018-06-29T15:17:03.657Z,1008.32
2018-06-29T15:18:03.662Z,1008.36
2018-06-29T15:19:03.665Z,1008.35
2018-06-29T15:20:03.669Z,1008.33
2018-06-29T15:21:03.673Z,1008.35
2018-06-29T15:22:03.842Z,1008.32
2018-06-29T15:23:03.680Z,1008.32
2018-06-29T15:24:03.685Z,1008.29
2018-06-29T15:25:03.691Z,1008.29
2018-06-29T15:26:03.696Z,1008.32
2018-06-29T15:27:03.696Z,1008.28
2018-06-29T15:28:03.703Z,1008.28
2018-06-29T15:29:03.704Z,1008.26
2018-06-29T15:30:03.707Z,1008.23
2018-06-29T15:31:03.717Z,1008.24
2018-06-29T15:32:03.716Z,1008.31
2018-06-29T15:33:03.715Z,1008.23
2018-06-29T15:34:03.918Z,1008.22
2018-06-29T15:35:03.716Z,1008.21
2018-06-29T15:36:03.719Z,1008.23
2018-06-29T15:37:03.720Z,1008.24
2018-06-29T15:38:03.725Z,1008.23
2018-06-29T15:39:03.724Z,1008.17
2018-06-29T15:40:03.724Z,1008.2
2018-06-29T15:41:03.730Z,1008.15
2018-06-29T15:42:03.727Z,1008.13
2018-06-29T15:43:03.731Z,1008.16
2018-06-29T15:44:03.730Z,1008.12
2018-06-29T15:45:03.733Z,1008.1
2018-06-29T15:46:03.732Z,1008.14
2018-06-29T15:47:03.733Z,1008.13
2018-06-29T15:48:03.729Z,1008.13
2018-06-29T15:49:03.729Z,1008.1
2018-06-29T15:50:03.731Z,1008.12
2018-06-29T15:51:03.736Z,1008.1
2018-06-29T15:52:03.729Z,1008.09
2018-06-29T15:53:03.731Z,1008.04
2018-06-29T15:54:03.732Z,1008.03
2018-06-29T15:55:03.731Z,1008.02
2018-06-29T15:56:03.731Z,1008.03
2018-06-29T15:57:03.730Z,1008.03
2018-06-29T15:58:03.730Z,1008.01
2018-06-29T15:59:03.731Z,1008.01
2018-06-29T16:00:03.730Z,1008.04
2018-06-29T16:01:03.728Z,1008.03
2018-06-29T16:02:03.728Z,1007.98
2018-06-29T16:03:03.728Z,1008.01
2018-06-29T16:04:03.726Z,1008.04
2018-06-29T16:05:03.726Z,1008.01
2018-06-29T16:06:03.723Z,1007.96
2018-06-29T16:07:03.725Z,1007.96
2018-06-29T16:08:03.724Z,1007.92
2018-06-29T16:09:03.721Z,1007.95
2018-06-29T16:10:03.720Z,1007.93
2018-06-29T16:11:03.717Z,1007.91
2018-06-29T16:12:03.720Z,1007.9
2018-06-29T16:13:03.715Z,1007.84
2018-06-29T16:14:03.713Z,1007.9
2018-06-29T16:15:03.715Z,1007.83
2018-06-29T16:16:03.712Z,1007.82
2018-06-29T16:17:03.714Z,1007.83
2018-06-29T16:18:03.710Z,1007.83
2018-06-29T16:19:03.708Z,1007.82
2018-06-29T16:20:03.706Z,1007.78
2018-06-29T16:21:03.703Z,1007.8
2018-06-29T16:22:03.702Z,1007.71
2018-06-29T16:23:03.699Z,1007.77
2018-06-29T16:24:03.700Z,1007.76
2018-06-29T16:25:03.698Z,1007.76
2018-06-29T16:26:03.697Z,1007.78
2018-06-29T16:27:03.693Z,1007.75
2018-06-29T16:28:03.694Z,1007.73
2018-06-29T16:29:03.688Z,1007.72
2018-06-29T16:30:03.687Z,1007.7
2018-06-29T16:31:03.687Z,1007.7
2018-06-29T16:32:03.683Z,1007.67
2018-06-29T16:33:03.680Z,1007.74
2018-06-29T16:34:03.678Z,1007.7
2018-06-29T16:35:03.677Z,1007.74
2018-06-29T16:36:03.674Z,1007.72
2018-06-29T16:37:03.672Z,1007.67
2018-06-29T16:38:03.671Z,1007.7
2018-06-29T16:39:03.669Z,1007.69